Time;durP1;ratioP1;P1;durP2;ratioP2;P2;SDS_P1;SDS_P2;PMS_P1;PMS_P2;Temp;Humidity;BMP_temperature;BMP_pressure;BME280_temperature;BME280_humidity;BME280_pressure;Samples;Min_cycle;Max_cycle;Signal;HPM_P1;HPM_P2
2022/12/05 00:00:53;;;;;;;10.47;3.80;;;;;;;-10.68;54.43;103011.72;4756624;30;20040;-84
2022/12/05 00:03:20;;;;;;;9.40;3.97;;;;;;;-10.56;54.80;103012.41;4758882;30;20483;-86
2022/12/05 00:05:55;;;;;;;10.50;4.03;;;;;;;-11.69;54.73;102834.56;4786526;30;20044;-85
2022/12/05 00:08:21;;;;;;;10.53;3.90;;;;;;;-11.53;54.46;102868.50;4773168;30;20502;-82
2022/12/05 00:10:47;;;;;;;10.27;4.53;;;;;;;-10.97;54.98;102960.19;4772750;30;20139;-85
2022/12/05 00:13:13;;;;;;;7.37;3.70;;;;;;;-10.90;54.43;102971.22;4771771;30;20082;-86
2022/12/05 00:15:40;;;;;;;10.83;3.80;;;;;;;-10.72;54.84;102996.06;4786531;30;20051;-84
2022/12/05 00:18:07;;;;;;;7.97;4.10;;;;;;;-11.54;54.67;102871.72;4757498;30;20089;-83
2022/12/05 00:20:33;;;;;;;10.20;4.50;;;;;;;-12.00;54.68;102788.81;4788169;30;20040;-84
2022/12/05 00:23:00;;;;;;;13.33;4.80;;;;;;;-11.64;54.64;102846.13;4786522;30;20031;-84
2022/12/05 00:25:26;;;;;;;17.53;5.27;;;;;;;-11.82;54.68;102817.91;4755149;30;20059;-84
2022/12/05 00:27:52;;;;;;;16.10;4.47;;;;;;;-11.27;54.46;102901.13;4799927;29;20106;-82
2022/12/05 00:30:19;;;;;;;7.87;3.57;;;;;;;-12.79;54.89;102660.69;4756042;30;20035;-83
2022/12/05 00:32:45;;;;;;;11.10;4.27;;;;;;;-11.32;54.74;102916.34;4776319;29;20040;-84
2022/12/05 00:35:11;;;;;;;9.33;4.17;;;;;;;-12.34;54.86;102723.28;4759575;30;20123;-87
2022/12/05 00:37:38;;;;;;;11.17;3.93;;;;;;;-11.14;55.14;102933.78;4780574;30;20086;-85
2022/12/05 00:40:05;;;;;;;14.10;4.37;;;;;;;-11.87;55.03;102808.88;4785474;30;20054;-82
2022/12/05 00:42:31;;;;;;;9.93;4.03;;;;;;;-11.63;54.55;102860.50;4771912;30;20139;-85
2022/12/05 00:44:57;;;;;;;9.60;3.90;;;;;;;-11.75;54.60;102834.69;4782838;30;20051;-85
2022/12/05 00:47:23;;;;;;;14.10;3.90;;;;;;;-11.60;54.32;102850.84;4754555;30;20050;-83
2022/12/05 00:49:50;;;;;;;11.13;4.13;;;;;;;-11.09;54.29;102960.44;4767720;30;20063;-83
2022/12/05 00:52:16;;;;;;;9.93;4.27;;;;;;;-12.21;54.14;102809.53;4767195;30;20514;-81
2022/12/05 00:54:42;;;;;;;8.90;3.87;;;;;;;-11.26;54.37;102982.50;4749051;30;20054;-83
2022/12/05 00:57:09;;;;;;;15.10;4.27;;;;;;;-12.60;55.59;102773.50;4765136;30;20142;-84
2022/12/05 00:59:35;;;;;;;11.90;4.87;;;;;;;-11.78;55.09;102866.03;4768960;30;20048;-82
2022/12/05 01:02:01;;;;;;;10.77;4.30;;;;;;;-11.18;55.48;102970.94;4773459;30;20051;-81
2022/12/05 01:04:27;;;;;;;10.43;3.97;;;;;;;-11.32;54.79;102944.00;4776644;30;20439;-87
2022/12/05 01:06:57;;;;;;;9.90;4.33;;;;;;;-12.01;55.51;102809.63;4760944;30;20130;-87
2022/12/05 01:09:23;;;;;;;8.13;3.50;;;;;;;-11.33;54.75;102934.63;4777277;30;20039;-84
2022/12/05 01:11:50;;;;;;;14.03;4.60;;;;;;;-11.12;55.01;102985.19;4746750;30;20047;-86
2022/12/05 01:14:19;;;;;;;7.63;3.33;;;;;;;-11.26;54.90;103006.03;4753351;30;20142;-86
2022/12/05 01:16:47;;;;;;;11.03;3.87;;;;;;;-11.66;55.25;102920.41;4764054;30;20094;-84
2022/12/05 01:19:18;;;;;;;8.43;3.43;;;;;;;-11.82;55.15;102884.81;4776831;30;20070;-84
2022/12/05 01:21:44;;;;;;;8.17;4.10;;;;;;;-11.60;55.03;102932.84;4731616;30;20052;-83
2022/12/05 01:24:13;;;;;;;9.37;3.57;;;;;;;-11.73;55.37;102893.59;4745196;30;20061;-84
2022/12/05 01:26:40;;;;;;;8.30;3.57;;;;;;;-11.96;55.46;102821.16;4744844;30;20044;-84
2022/12/05 01:29:07;;;;;;;7.17;3.57;;;;;;;-11.75;55.12;102854.78;4715561;30;20492;-85
2022/12/05 01:31:35;;;;;;;19.17;4.50;;;;;;;-11.84;54.88;102841.94;4727320;30;20142;-85
2022/12/05 01:34:04;;;;;;;9.80;4.50;;;;;;;-11.97;55.56;102803.34;4744315;30;20044;-83
2022/12/05 01:36:31;;;;;;;9.47;4.03;;;;;;;-12.17;55.34;102765.66;4761871;30;20064;-87
2022/12/05 01:38:57;;;;;;;8.60;3.90;;;;;;;-11.37;55.16;102890.59;4777079;29;20061;-83
2022/12/05 01:41:28;;;;;;;7.20;3.73;;;;;;;-11.23;54.58;102908.34;4761465;30;20051;-87
2022/12/05 01:44:11;;;;;;;9.60;3.57;;;;;;;-11.76;55.22;102817.78;4764908;30;20044;-85
2022/12/05 01:46:50;;;;;;;14.00;4.07;;;;;;;-10.97;55.57;102937.53;4728345;30;20078;-86
2022/12/05 01:49:19;;;;;;;10.80;3.77;;;;;;;-10.95;55.00;102933.63;4757011;30;20043;-85
2022/12/05 01:51:49;;;;;;;10.40;4.17;;;;;;;-11.41;55.61;102863.25;4739957;30;20442;-82
2022/12/05 01:54:17;;;;;;;11.33;4.30;;;;;;;-11.06;54.49;102934.75;4739933;30;20422;-84
2022/12/05 01:56:49;;;;;;;11.87;5.00;;;;;;;-11.17;55.21;102935.00;4725715;30;20143;-85
2022/12/05 01:59:17;;;;;;;10.10;4.22;;;;;;;-11.55;54.79;102877.44;4741382;30;20090;-86
2022/12/05 02:01:44;;;;;;;8.73;4.27;;;;;;;-11.14;55.28;102940.44;4748847;29;20071;-82
2022/12/05 02:04:10;;;;;;;12.23;4.30;;;;;;;-11.26;54.63;102935.63;4760821;30;20048;-83
2022/12/05 02:06:37;;;;;;;8.97;3.53;;;;;;;-11.38;53.96;102931.53;4769573;30;20048;-79
2022/12/05 02:09:03;;;;;;;12.23;4.03;;;;;;;-12.33;54.65;102813.84;4755014;30;20044;-83
2022/12/05 02:11:32;;;;;;;11.07;4.03;;;;;;;-12.05;55.14;102882.75;4745038;30;20048;-84
2022/12/05 02:14:21;;;;;;;19.33;4.50;;;;;;;-11.81;55.08;102932.78;4759261;30;20099;-83
2022/12/05 02:17:06;;;;;;;11.17;4.13;;;;;;;-11.87;54.79;102926.94;4754344;30;20537;-80
2022/12/05 02:19:49;;;;;;;10.63;4.00;;;;;;;-11.99;55.19;102936.31;4745011;30;20612;-83
2022/12/05 02:22:43;;;;;;;16.73;4.60;;;;;;;-12.01;55.37;102941.81;4773492;30;20090;-85
2022/12/05 02:25:27;;;;;;;9.47;4.23;;;;;;;-12.07;55.34;102931.00;4757720;30;20051;-83
2022/12/05 02:28:07;;;;;;;8.80;3.57;;;;;;;-12.42;55.78;102886.34;4760723;30;20079;-82
2022/12/05 02:30:41;;;;;;;16.63;4.20;;;;;;;-12.40;55.86;102886.56;4763017;30;20126;-81
2022/12/05 02:33:14;;;;;;;13.43;4.37;;;;;;;-12.03;56.11;102958.34;4763410;30;20040;-85
2022/12/05 02:35:51;;;;;;;9.67;4.07;;;;;;;-12.63;56.09;102806.63;4758565;30;20100;-83
2022/12/05 02:38:21;;;;;;;13.07;4.47;;;;;;;-11.73;56.16;102915.28;4745364;30;20051;-84
2022/12/05 02:40:59;;;;;;;10.87;3.97;;;;;;;-11.80;55.92;102916.09;4761385;30;20035;-83
2022/12/05 02:43:36;;;;;;;9.57;3.77;;;;;;;-12.61;56.09;102786.72;4761443;30;20596;-87
2022/12/05 02:46:08;;;;;;;13.10;4.43;;;;;;;-13.84;55.62;102561.81;4767705;30;20048;-81
2022/12/05 02:48:37;;;;;;;12.30;4.50;;;;;;;-12.63;55.83;102765.56;4754330;30;20047;-83
2022/12/05 02:51:05;;;;;;;10.90;4.13;;;;;;;-13.02;56.33;102683.66;4772850;30;20079;-82
2022/12/05 02:53:35;;;;;;;11.00;4.50;;;;;;;-11.87;56.37;102851.56;4755886;30;20063;-85
2022/12/05 02:56:01;;;;;;;10.20;4.20;;;;;;;-11.85;55.74;102842.63;4772208;30;20046;-80
2022/12/05 02:58:35;;;;;;;9.53;4.20;;;;;;;-11.61;56.30;102873.25;4772245;30;20174;-82
2022/12/05 03:01:02;;;;;;;10.60;4.10;;;;;;;-11.55;55.57;102869.91;4758384;30;20108;-85
2022/12/05 03:03:33;;;;;;;;;;;;;;;-11.34;55.74;102890.97;4745595;30;20518;-83
2022/12/05 03:06:14;;;;;;;8.30;3.70;;;;;;;-11.67;55.74;102839.06;4775760;30;19941;-82
2022/12/05 03:09:34;;;;;;;8.73;3.60;;;;;;;-11.30;56.33;102889.78;4760250;30;20055;-83
2022/12/05 03:12:20;;;;;;;8.37;3.30;;;;;;;-11.40;56.06;102875.13;4769275;30;20233;-84
2022/12/05 03:14:55;;;;;;;8.07;3.90;;;;;;;-11.48;56.02;102848.06;4747032;30;20050;-83
2022/12/05 03:17:25;;;;;;;8.63;3.83;;;;;;;-11.96;55.88;102754.91;4757866;30;20047;-84
2022/12/05 03:20:01;;;;;;;10.60;4.23;;;;;;;-11.48;55.13;102833.00;4754722;30;20043;-83
2022/12/05 03:23:10;;;;;;;7.23;3.70;;;;;;;-11.24;55.22;102876.38;4755399;30;20040;-81
2022/12/05 03:26:13;;;;;;;9.17;3.93;;;;;;;-11.23;55.69;102870.63;4755467;30;20056;-81
2022/12/05 03:29:16;;;;;;;10.90;3.80;;;;;;;-11.23;55.29;102873.16;4754332;30;20086;-82
2022/12/05 03:32:05;;;;;;;9.60;4.13;;;;;;;-11.18;55.42;102905.53;4756852;29;20040;-83
2022/12/05 03:34:49;;;;;;;9.70;3.63;;;;;;;-11.16;55.02;102876.47;4759208;30;20066;-81
2022/12/05 03:37:37;;;;;;;11.03;4.30;;;;;;;-11.24;55.70;102857.84;4755210;30;20070;-83
2022/12/05 03:40:10;;;;;;;7.37;3.63;;;;;;;-12.15;55.10;102719.94;4770333;30;20048;-82
2022/12/05 03:42:41;;;;;;;7.50;3.70;;;;;;;-11.34;54.96;102908.56;4758412;30;20047;-83
2022/12/05 03:45:19;;;;;;;12.87;4.77;;;;;;;-12.18;55.15;102746.28;4741544;30;20076;-81
2022/12/05 03:48:20;;;;;;;11.37;3.97;;;;;;;-11.78;55.58;102799.09;4759106;29;20032;-85
2022/12/05 03:50:49;;;;;;;11.13;4.80;;;;;;;-12.13;55.12;102758.72;4729241;30;20060;-86
2022/12/05 03:53:25;;;;;;;7.10;3.60;;;;;;;-11.66;55.00;102860.09;4757927;30;20048;-83
2022/12/05 03:56:01;;;;;;;11.97;4.60;;;;;;;-11.58;55.06;102872.00;4734500;30;20116;-84
2022/12/05 03:58:34;;;;;;;21.57;8.87;;;;;;;-11.81;55.27;102839.81;4725546;30;20087;-83
2022/12/05 04:01:04;;;;;;;16.17;5.43;;;;;;;-11.61;55.43;102864.09;4750572;29;20043;-85
2022/12/05 04:04:02;;;;;;;13.53;4.67;;;;;;;-11.56;55.28;102857.16;4775253;29;20032;-85
2022/12/05 04:06:35;;;;;;;11.83;4.03;;;;;;;-11.69;55.38;102819.47;4757724;30;20036;-83
2022/12/05 04:09:31;;;;;;;15.03;4.43;;;;;;;-11.53;55.57;102850.00;4754885;30;20058;-83
2022/12/05 04:12:05;;;;;;;11.03;4.13;;;;;;;-11.48;55.19;102854.03;4741171;30;20063;-82
2022/12/05 04:14:49;;;;;;;15.43;4.47;;;;;;;-11.44;55.10;102845.25;4739568;30;20039;-83
2022/12/05 04:17:24;;;;;;;10.50;4.40;;;;;;;-11.38;55.64;102846.94;4755280;30;20044;-84
2022/12/05 04:23:05;;;;;;;12.00;3.93;;;;;;;-11.28;55.77;102836.44;4764384;30;20063;-82
2022/12/05 04:26:20;;;;;;;10.97;4.67;;;;;;;-11.23;55.10;102826.97;4781157;30;20051;-81
2022/12/05 04:28:54;;;;;;;10.03;4.03;;;;;;;-11.30;54.78;102829.41;4746145;30;20051;-82
2022/12/05 04:31:50;;;;;;;12.00;4.20;;;;;;;-11.57;55.65;102790.00;4771587;30;20572;-83
2022/12/05 04:34:18;;;;;;;8.47;3.40;;;;;;;-11.43;55.06;102840.41;4755185;30;20115;-82
2022/12/05 04:36:54;;;;;;;10.53;3.97;;;;;;;-11.42;55.24;102832.16;4770515;30;20055;-84
2022/12/05 04:39:26;;;;;;;11.90;4.00;;;;;;;-11.65;55.09;102784.00;4770550;30;20190;-82
2022/12/05 04:41:57;;;;;;;5.40;3.37;;;;;;;-11.51;55.13;102804.25;4760158;30;20434;-82
2022/12/05 04:44:29;;;;;;;9.85;4.15;;;;;;;-11.64;54.75;102793.34;4757304;30;20047;-81
2022/12/05 04:47:00;;;;;;;8.70;3.42;;;;;;;-11.89;54.79;102770.09;4744283;30;20051;-79
2022/12/05 04:49:29;;;;;;;11.23;4.33;;;;;;;-11.74;54.68;102795.34;4773339;30;20057;-82
2022/12/05 04:52:01;;;;;;;11.60;4.10;;;;;;;-12.10;54.84;102758.19;4773461;30;20044;-81
2022/12/05 04:54:29;;;;;;;;;;;;;;;-11.71;55.28;102808.31;4774974;30;20572;-83
2022/12/05 04:57:08;;;;;;;10.53;4.00;;;;;;;-12.08;55.74;102735.81;4773496;30;20289;-82
2022/12/05 04:59:35;;;;;;;21.13;11.67;;;;;;;-11.62;54.64;102807.00;4757924;30;20067;-82
2022/12/05 05:02:09;;;;;;;15.03;6.83;;;;;;;-11.87;55.24;102763.66;4764911;30;20061;-82
2022/12/05 05:04:41;;;;;;;15.43;5.37;;;;;;;-11.53;54.84;102805.66;4779281;30;20065;-80
2022/12/05 05:07:10;;;;;;;9.33;4.17;;;;;;;-11.64;54.95;102800.88;4768272;30;20499;-84
2022/12/05 05:09:37;;;;;;;8.97;3.80;;;;;;;-11.87;54.32;102780.31;4730272;30;20081;-81
2022/12/05 05:12:04;;;;;;;12.63;4.37;;;;;;;-12.21;55.07;102716.63;4773098;30;20101;-84
2022/12/05 05:14:30;;;;;;;11.13;4.03;;;;;;;-11.79;55.01;102787.25;4774057;30;20110;-82
2022/12/05 05:16:57;;;;;;;9.63;3.97;;;;;;;-11.69;55.16;102810.31;4744526;30;20101;-80
2022/12/05 05:19:27;;;;;;;9.77;3.70;;;;;;;-12.03;55.06;102757.41;4769720;30;20098;-83
2022/12/05 05:21:56;;;;;;;9.23;4.53;;;;;;;-11.91;54.61;102774.00;4739509;30;20573;-83
2022/12/05 05:24:24;;;;;;;13.27;5.53;;;;;;;-11.81;55.22;102809.66;4753701;30;20059;-84
2022/12/05 05:26:52;;;;;;;11.13;4.37;;;;;;;-12.30;54.49;102759.03;4739959;30;20051;-84
2022/12/05 05:29:21;;;;;;;11.47;4.23;;;;;;;-12.13;54.40;102810.53;4740163;30;20048;-82
2022/12/05 05:31:47;;;;;;;7.83;3.57;;;;;;;-12.46;54.81;102763.63;4740014;30;20049;-82
2022/12/05 05:34:15;;;;;;;16.57;4.63;;;;;;;-12.45;54.44;102778.00;4739929;30;20048;-82
2022/12/05 05:36:41;;;;;;;9.33;4.43;;;;;;;-12.48;54.66;102787.66;4725741;30;20097;-82
2022/12/05 05:39:12;;;;;;;10.30;4.53;;;;;;;-12.20;55.03;102821.38;4754789;30;20129;-82
2022/12/05 05:41:38;;;;;;;8.20;4.60;;;;;;;-12.17;55.18;102808.34;4724627;30;20044;-82
2022/12/05 05:44:04;;;;;;;13.07;4.57;;;;;;;-12.26;55.28;102772.91;4739146;30;20051;-79
2022/12/05 05:46:33;;;;;;;14.73;5.23;;;;;;;-11.59;55.47;102804.88;4724934;30;20051;-80
2022/12/05 05:48:59;;;;;;;11.70;4.93;;;;;;;-11.06;55.26;102778.78;4754944;30;20048;-82
2022/12/05 05:51:28;;;;;;;13.67;5.73;;;;;;;-10.30;55.44;102765.41;4754963;30;20088;-83
2022/12/05 05:56:50;;;;;;;9.77;5.47;;;;;;;-8.48;54.89;102760.75;4761213;30;20052;-82
2022/12/05 05:59:19;;;;;;;10.02;4.13;;;;;;;-8.01;53.00;102740.75;4766436;30;20506;-85
2022/12/05 06:01:45;;;;;;;11.95;5.57;;;;;;;-7.67;53.73;102681.31;4741903;30;20139;-83
2022/12/05 06:04:15;;;;;;;11.23;5.72;;;;;;;-6.29;53.12;102761.09;4725977;30;20044;-80
2022/12/05 06:06:53;;;;;;;10.68;5.10;;;;;;;-6.02;52.38;102661.69;4740405;30;20074;-81
2022/12/05 06:09:25;;;;;;;9.50;4.80;;;;;;;-4.72;52.29;102725.53;4754508;30;20050;-83
2022/12/05 06:11:51;;;;;;;9.02;5.00;;;;;;;-3.83;51.71;102721.38;4739130;30;20052;-82
2022/12/05 06:14:17;;;;;;;14.80;5.25;;;;;;;-3.58;50.62;102621.91;4739429;30;20048;-80
2022/12/05 06:16:44;;;;;;;10.95;4.45;;;;;;;-2.28;49.67;102717.81;4739060;30;20147;-81
2022/12/05 06:19:14;;;;;;;10.25;5.00;;;;;;;-1.84;48.40;102674.06;4741023;30;20074;-82
2022/12/05 06:21:50;;;;;;;11.13;4.95;;;;;;;-1.36;46.58;102673.06;4772859;30;20047;-83
2022/12/05 06:24:17;;;;;;;9.30;4.60;;;;;;;-0.99;46.25;102642.06;4773142;30;20146;-83
2022/12/05 06:26:43;;;;;;;9.88;5.00;;;;;;;-0.82;45.59;102595.78;4787987;30;20103;-84
2022/12/05 06:29:15;;;;;;;19.73;8.73;;;;;;;0.53;44.64;102718.25;4778433;29;20035;-82
2022/12/05 06:31:44;;;;;;;11.32;5.47;;;;;;;-0.05;43.78;102554.09;4771273;30;20036;-82
2022/12/05 06:34:10;;;;;;;8.57;5.15;;;;;;;0.78;41.34;102669.78;4763524;30;20097;-80
2022/12/05 06:36:36;;;;;;;9.30;5.13;;;;;;;1.02;42.72;102634.88;4771707;30;20050;-82
2022/12/05 06:39:03;;;;;;;11.88;5.78;;;;;;;1.77;40.50;102679.72;4741818;30;20496;-82
2022/12/05 06:41:30;;;;;;;11.63;5.50;;;;;;;2.19;40.83;102658.72;4772232;30;20078;-83
2022/12/05 06:43:57;;;;;;;9.93;5.50;;;;;;;3.12;39.47;102704.56;4744614;30;20051;-82
2022/12/05 06:46:25;;;;;;;10.88;6.22;;;;;;;3.20;39.61;102653.59;4760561;30;20126;-81
2022/12/05 06:48:58;;;;;;;10.85;5.65;;;;;;;3.71;38.11;102633.78;4771014;30;20047;-81
2022/12/05 06:51:24;;;;;;;15.90;7.97;;;;;;;4.76;37.39;102684.94;4771796;30;20047;-81
2022/12/05 06:53:51;;;;;;;11.63;6.90;;;;;;;5.28;35.72;102687.19;4770631;30;20058;-81
2022/12/05 06:56:19;;;;;;;14.65;8.02;;;;;;;5.22;35.01;102615.44;4736282;30;20119;-82
2022/12/05 06:58:48;;;;;;;9.40;6.00;;;;;;;4.71;35.14;102509.25;4734139;30;20044;-80
2022/12/05 07:01:40;;;;;;;10.48;5.65;;;;;;;6.42;34.17;102673.78;4745443;30;20529;-79
2022/12/05 07:04:10;;;;;;;8.48;5.63;;;;;;;6.66;32.66;102593.09;4734868;30;20732;-81
2022/12/05 07:06:37;;;;;;;8.93;5.60;;;;;;;7.04;32.12;102553.63;4759754;30;20044;-83
2022/12/05 07:09:06;;;;;;;8.32;5.82;;;;;;;8.73;31.92;102672.13;4753342;30;20050;-81
2022/12/05 07:11:54;;;;;;;9.73;5.75;;;;;;;8.38;30.30;102519.19;4755497;30;20577;-82
2022/12/05 07:15:17;;;;;;;11.60;6.65;;;;;;;9.51;29.64;102676.31;4752249;30;20113;-84
2022/12/05 07:17:47;;;;;;;15.32;8.68;;;;;;;8.43;29.19;102426.84;4739919;30;20060;-85
2022/12/05 07:20:16;;;;;;;13.15;8.07;;;;;;;9.97;27.89;102653.84;4772362;30;20594;-84
2022/12/05 07:22:44;;;;;;;15.65;8.32;;;;;;;10.20;28.60;102652.16;4742987;30;20074;-85
2022/12/05 07:25:11;;;;;;;17.30;9.45;;;;;;;10.67;27.62;102653.91;4739744;30;20078;-86
2022/12/05 07:27:39;;;;;;;14.82;8.52;;;;;;;10.24;26.79;102539.56;4748310;30;20049;-84
2022/12/05 07:30:06;;;;;;;18.83;8.70;;;;;;;9.27;26.61;102497.75;4771982;30;20047;-81
2022/12/05 07:32:33;;;;;;;16.75;9.60;;;;;;;9.38;26.58;102606.47;4770736;30;20109;-84
2022/12/05 07:35:07;;;;;;;11.00;6.88;;;;;;;9.16;26.06;102582.16;4772390;30;20059;-80
2022/12/05 07:37:37;;;;;;;10.43;6.55;;;;;;;9.77;26.21;102648.75;4745452;30;20558;-84
2022/12/05 07:40:04;;;;;;;11.10;6.97;;;;;;;10.18;25.42;102634.69;4772769;30;20051;-85
2022/12/05 07:42:31;;;;;;;8.82;6.40;;;;;;;8.24;24.35;102536.72;4742856;30;20101;-86
2022/12/05 07:44:58;;;;;;;11.13;6.45;;;;;;;7.16;25.84;102531.72;4744140;30;20472;-84
2022/12/05 07:47:24;;;;;;;10.50;6.07;;;;;;;7.50;26.02;102577.41;4742733;30;20139;-83
2022/12/05 07:49:50;;;;;;;12.65;5.60;;;;;;;6.90;25.17;102624.50;4726180;30;20146;-82
2022/12/05 07:52:16;;;;;;;10.02;5.22;;;;;;;4.92;26.41;102482.91;4755564;30;20043;-84
2022/12/05 07:54:44;;;;;;;8.98;5.53;;;;;;;4.47;26.41;102570.56;4742405;30;20162;-82
2022/12/05 07:57:13;;;;;;;10.68;5.93;;;;;;;4.48;26.56;102647.13;4775107;30;20085;-83
2022/12/05 07:59:50;;;;;;;10.57;5.53;;;;;;;4.72;26.45;102629.72;4775357;30;20044;-84
2022/12/05 08:02:23;;;;;;;7.90;5.10;;;;;;;5.12;27.31;102583.03;4766423;30;20054;-84
2022/12/05 08:04:52;;;;;;;9.13;5.32;;;;;;;5.28;27.19;102609.72;4761172;30;20089;-81
2022/12/05 08:07:18;;;;;;;10.55;5.13;;;;;;;4.03;26.49;102529.28;4765316;30;20058;-81
2022/12/05 08:09:44;;;;;;;7.93;4.80;;;;;;;2.82;26.97;102489.88;4756682;30;20051;-79
2022/12/05 08:12:58;;;;;;;9.95;5.32;;;;;;;2.30;27.46;102524.19;4742892;30;20051;-84
2022/12/05 08:15:09;;;;;;;8.95;5.60;;;;;;;2.10;28.15;102664.97;4755421;30;20052;-83
2022/12/05 08:17:42;;;;;;;10.35;5.45;;;;;;;0.36;27.75;102560.63;4759080;30;20529;-81
2022/12/05 08:20:11;;;;;;;13.85;5.47;;;;;;;0.08;29.27;102628.53;4745679;30;20036;-80
2022/12/05 08:22:43;;;;;;;8.77;5.13;;;;;;;-1.46;29.50;102520.66;4747283;30;20418;-80
2022/12/05 08:25:10;;;;;;;;;;;;;;;-1.29;30.16;102644.72;4743666;30;20048;-80
2022/12/05 08:27:42;;;;;;;10.18;5.40;;;;;;;-1.72;31.01;102618.06;4763348;30;20006;-79
2022/12/05 08:30:09;;;;;;;10.85;5.40;;;;;;;-2.93;31.60;102455.47;4744244;30;20132;-82
2022/12/05 08:32:38;;;;;;;10.20;5.72;;;;;;;-2.43;32.12;102597.50;4741617;30;20078;-81
2022/12/05 08:35:10;;;;;;;10.38;5.38;;;;;;;-3.14;32.57;102479.03;4730113;30;20415;-83
2022/12/05 08:37:39;;;;;;;14.40;5.60;;;;;;;-3.84;33.00;102351.50;4754927;30;20048;-81
2022/12/05 08:40:07;;;;;;;12.43;5.90;;;;;;;-2.65;32.49;102587.00;4776703;30;20135;-83
2022/12/05 08:42:33;;;;;;;9.57;5.55;;;;;;;-2.93;32.70;102542.09;4745771;30;20446;-79
2022/12/05 08:44:59;;;;;;;13.40;5.68;;;;;;;-2.55;32.83;102546.28;4741624;30;20141;-83
2022/12/05 08:47:26;;;;;;;12.55;5.50;;;;;;;-1.72;33.16;102519.34;4775406;30;20051;-83
2022/12/05 08:49:57;;;;;;;10.13;5.43;;;;;;;0.36;33.74;102569.22;4765113;30;20058;-83
2022/12/05 08:52:23;;;;;;;9.93;5.32;;;;;;;1.33;31.86;102598.66;4746675;30;20474;-79
2022/12/05 08:54:52;;;;;;;9.98;5.65;;;;;;;1.11;32.11;102554.25;4774588;30;20058;-81
2022/12/05 08:57:21;;;;;;;10.45;5.70;;;;;;;0.14;31.19;102430.91;4791027;29;20112;-82
2022/12/05 08:59:47;;;;;;;12.98;7.20;;;;;;;-0.26;31.83;102358.78;4758693;30;20058;-83
2022/12/05 09:02:18;;;;;;;9.05;5.20;;;;;;;1.00;31.00;102607.31;4758596;30;20040;-82
2022/12/05 09:05:20;;;;;;;10.05;5.47;;;;;;;-0.87;31.58;102343.91;4757607;30;20134;-82
2022/12/05 09:08:08;;;;;;;9.88;5.63;;;;;;;-0.25;31.76;102483.41;4751283;30;20120;-85
2022/12/05 09:10:37;;;;;;;10.50;5.50;;;;;;;0.51;31.50;102615.66;4779554;30;20055;-85
2022/12/05 09:13:09;;;;;;;14.15;5.47;;;;;;;0.58;32.32;102606.75;4762075;30;20048;-85
2022/12/05 09:15:42;;;;;;;11.68;5.35;;;;;;;-0.41;31.98;102437.81;4758404;30;20059;-84
2022/12/05 09:18:47;;;;;;;9.75;5.18;;;;;;;1.22;32.18;102579.03;4762216;30;20098;-86
2022/12/05 09:21:57;;;;;;;8.93;4.55;;;;;;;-0.09;31.90;102307.19;4751806;30;20048;-84
2022/12/05 09:25:09;;;;;;;9.70;4.43;;;;;;;1.48;31.87;102256.69;4752637;30;20153;-80
2022/12/05 09:27:38;;;;;;;7.50;4.57;;;;;;;5.20;31.82;102546.41;4702540;30;20211;-83
2022/12/05 09:30:49;;;;;;;9.82;4.60;;;;;;;5.98;29.84;102480.09;4765329;30;20138;-81
2022/12/05 09:33:40;;;;;;;10.88;5.00;;;;;;;8.31;28.51;102545.66;4777242;30;20036;-82
2022/12/05 09:36:24;;;;;;;9.40;4.25;;;;;;;7.91;27.24;102344.22;4771308;30;20039;-81
2022/12/05 09:38:55;;;;;;;7.43;4.32;;;;;;;9.30;27.60;102399.16;4812675;24;20573;-78
2022/12/05 09:42:04;;;;;;;8.18;4.43;;;;;;;9.34;25.68;102522.28;4803524;29;20588;-81
2022/12/05 10:03:35;;;;;;;10.43;4.93;;;;;;;3.98;27.77;102515.22;4739621;30;20600;-82
2022/12/05 10:06:24;;;;;;;7.47;4.65;;;;;;;3.21;28.95;102508.69;4773177;29;20055;-81
2022/12/05 10:09:32;;;;;;;;;;;;;;;;;;;;;
2022/12/05 10:21:57;;;;;;;9.75;4.45;;;;;;;-2.57;31.46;102252.03;4756541;29;20058;-83
2022/12/05 10:24:46;;;;;;;10.60;4.78;;;;;;;-1.48;32.51;102523.88;4776541;30;20070;-82
2022/12/05 10:31:30;;;;;;;7.47;4.13;;;;;;;-4.05;32.66;102197.81;4729775;30;20099;-81
2022/12/05 10:34:29;;;;;;;8.90;4.55;;;;;;;-2.22;32.53;102533.81;4734173;30;20049;-81
2022/12/05 10:37:22;;;;;;;9.23;3.45;;;;;;;-3.12;33.84;102442.72;4762204;30;20047;-80
2022/12/05 10:39:51;;;;;;;9.38;4.32;;;;;;;-3.11;33.90;102492.06;4772369;30;20074;-83
2022/12/05 10:42:52;;;;;;;7.45;3.90;;;;;;;-3.13;34.52;102524.13;4768402;30;20119;-81
2022/12/05 10:45:21;;;;;;;8.30;3.80;;;;;;;-3.65;34.59;102473.69;4752372;30;20119;-79
2022/12/05 10:47:52;;;;;;;8.90;4.50;;;;;;;-3.81;35.23;102513.75;4788755;30;20111;-79
2022/12/05 10:50:33;;;;;;;8.27;4.15;;;;;;;-4.07;35.48;102499.47;4790080;30;20052;-80
2022/12/05 10:53:04;;;;;;;10.18;4.35;;;;;;;-3.96;35.89;102529.38;4779607;30;20051;-81
2022/12/05 10:55:42;;;;;;;7.43;3.72;;;;;;;-4.12;36.31;102518.53;4777803;30;20047;-81
2022/12/05 10:58:28;;;;;;;8.65;3.97;;;;;;;-4.36;36.52;102497.66;4768326;30;20527;-80
2022/12/05 11:01:07;;;;;;;8.88;3.90;;;;;;;-4.66;36.44;102488.00;4736695;30;20491;-82
2022/12/05 11:03:39;;;;;;;13.07;4.28;;;;;;;-4.54;37.59;102502.78;4776542;30;20048;-81
2022/12/05 11:06:23;;;;;;;7.75;3.40;;;;;;;-4.67;37.03;102474.38;4785057;29;20048;-81
2022/12/05 11:08:55;;;;;;;6.30;3.90;;;;;;;-4.48;37.51;102512.63;4774840;30;20462;-79
2022/12/05 11:11:24;;;;;;;10.07;4.55;;;;;;;-4.61;37.87;102517.28;4757801;30;20527;-81
2022/12/05 11:13:58;;;;;;;6.75;3.60;;;;;;;-4.76;38.00;102509.09;4774633;30;20103;-80
2022/12/05 11:16:28;;;;;;;10.20;3.83;;;;;;;-5.06;38.49;102485.91;4758438;30;20085;-81
2022/12/05 11:18:56;;;;;;;6.90;4.00;;;;;;;-4.90;38.41;102507.75;4777456;30;20047;-83
2022/12/05 11:21:22;;;;;;;9.82;3.80;;;;;;;-5.23;38.08;102468.16;4777963;29;20031;-84
2022/12/05 11:23:48;;;;;;;7.28;3.97;;;;;;;-5.31;39.05;102452.16;4778341;29;20049;-80
2022/12/05 11:26:35;;;;;;;8.52;3.70;;;;;;;-5.01;39.57;102502.50;4777797;29;20031;-81
2022/12/05 11:29:26;;;;;;;;;;;;;;;-5.06;39.41;102506.25;4782964;30;20047;-81
2022/12/05 11:31:52;;;;;;;5.93;3.08;;;;;;;-6.34;39.31;102311.06;4775412;30;19925;-80
2022/12/05 11:34:26;;;;;;;8.85;4.55;;;;;;;-6.16;39.53;102337.34;4773422;30;20075;-82
2022/12/05 11:36:57;;;;;;;6.25;3.47;;;;;;;-5.15;39.95;102485.91;4767523;30;20501;-81
2022/12/05 11:39:24;;;;;;;8.50;3.50;;;;;;;-5.21;39.73;102466.66;4761350;30;20119;-80
2022/12/05 11:42:18;;;;;;;7.05;3.00;;;;;;;-5.69;39.50;102386.75;4756735;30;20055;-85
2022/12/05 11:45:11;;;;;;;9.68;3.78;;;;;;;-5.16;39.94;102483.25;4744552;30;20058;-84
2022/12/05 11:48:03;;;;;;;6.68;3.83;;;;;;;-5.14;40.24;102485.19;4774137;30;20102;-80
2022/12/05 11:50:40;;;;;;;9.00;4.10;;;;;;;-5.10;40.40;102482.94;4757016;30;20495;-86
2022/12/05 11:53:19;;;;;;;13.90;4.80;;;;;;;-5.27;40.22;102486.38;4772689;30;20517;-84
2022/12/05 11:55:50;;;;;;;9.77;5.03;;;;;;;-5.35;40.28;102491.59;4745418;30;20047;-85
2022/12/05 11:58:54;;;;;;;9.85;4.45;;;;;;;-5.40;40.62;102479.19;4770713;30;20051;-82
2022/12/05 12:01:57;;;;;;;8.32;3.88;;;;;;;-5.60;41.05;102480.66;4766617;30;20052;-81
2022/12/05 12:09:14;;;;;;;8.48;4.15;;;;;;;-7.33;41.81;102214.34;4759319;30;20044;-82
2022/12/05 12:11:55;;;;;;;6.82;3.58;;;;;;;-5.72;41.76;102465.09;4780919;30;20071;-83
2022/12/05 12:14:46;;;;;;;12.30;5.22;;;;;;;-5.86;42.02;102466.28;4758777;30;20048;-82
2022/12/05 12:18:02;;;;;;;10.95;5.00;;;;;;;-5.96;42.14;102455.94;4760612;30;20131;-80
2022/12/05 12:21:26;;;;;;;13.10;4.85;;;;;;;-6.08;42.40;102466.69;4746332;30;20418;-83
2022/12/05 12:25:07;;;;;;;9.50;3.83;;;;;;;-6.45;42.90;102432.53;4913831;24;20063;-82
2022/12/05 12:28:47;;;;;;;8.35;3.80;;;;;;;-7.12;42.75;102268.78;4771555;30;20047;-84
2022/12/05 12:35:08;;;;;;;10.88;4.72;;;;;;;-6.24;43.01;102450.66;5075161;24;20050;-84
2022/12/05 12:38:09;;;;;;;10.75;4.72;;;;;;;-6.52;43.15;102419.97;4804512;29;20051;-83
2022/12/05 12:40:47;;;;;;;12.30;5.72;;;;;;;-6.51;42.99;102440.41;4764452;30;20059;-83
2022/12/05 12:43:40;;;;;;;9.80;4.43;;;;;;;-6.58;43.63;102429.47;4763100;30;20051;-81
2022/12/05 12:46:21;;;;;;;;;;;;;;;-6.57;43.89;102433.81;4747164;30;20058;-81